sensor_id;sensor_type;location;lat;lon;timestamp;P1;durP1;ratioP1;P2;durP2;ratioP2
62435;SDS011;48480;50.252;18.848;2023-03-11T00:02:15;4.90;;;2.70;;
62435;SDS011;48480;50.252;18.848;2023-03-11T00:04:41;5.40;;;3.10;;
62435;SDS011;48480;50.252;18.848;2023-03-11T00:07:07;4.00;;;2.40;;
62435;SDS011;48480;50.252;18.848;2023-03-11T00:09:34;4.50;;;2.70;;
62435;SDS011;48480;50.252;18.848;2023-03-11T00:12:00;6.00;;;3.00;;
62435;SDS011;48480;50.252;18.848;2023-03-11T00:14:25;4.60;;;3.00;;
62435;SDS011;48480;50.252;18.848;2023-03-11T00:16:51;5.30;;;2.40;;
62435;SDS011;48480;50.252;18.848;2023-03-11T00:19:17;4.40;;;2.80;;
62435;SDS011;48480;50.252;18.848;2023-03-11T00:21:42;4.70;;;2.60;;
62435;SDS011;48480;50.252;18.848;2023-03-11T00:24:08;3.80;;;2.50;;
62435;SDS011;48480;50.252;18.848;2023-03-11T00:26:33;4.60;;;2.30;;
62435;SDS011;48480;50.252;18.848;2023-03-11T00:28:59;4.00;;;2.40;;
62435;SDS011;48480;50.252;18.848;2023-03-11T00:31:24;7.00;;;2.80;;
62435;SDS011;48480;50.252;18.848;2023-03-11T00:33:53;4.10;;;2.50;;
62435;SDS011;48480;50.252;18.848;2023-03-11T00:36:23;5.00;;;2.40;;
62435;SDS011;48480;50.252;18.848;2023-03-11T00:38:53;3.70;;;2.30;;
62435;SDS011;48480;50.252;18.848;2023-03-11T00:41:18;2.90;;;1.80;;
62435;SDS011;48480;50.252;18.848;2023-03-11T00:43:44;6.30;;;2.00;;
62435;SDS011;48480;50.252;18.848;2023-03-11T00:46:09;2.80;;;1.50;;
62435;SDS011;48480;50.252;18.848;2023-03-11T00:48:35;2.80;;;1.50;;
62435;SDS011;48480;50.252;18.848;2023-03-11T00:51:00;2.50;;;2.10;;
62435;SDS011;48480;50.252;18.848;2023-03-11T00:53:25;2.00;;;1.30;;
62435;SDS011;48480;50.252;18.848;2023-03-11T00:55:51;3.00;;;1.30;;
62435;SDS011;48480;50.252;18.848;2023-03-11T00:58:16;2.80;;;1.20;;
62435;SDS011;48480;50.252;18.848;2023-03-11T01:00:43;5.60;;;2.30;;
62435;SDS011;48480;50.252;18.848;2023-03-11T01:03:08;4.30;;;2.30;;
62435;SDS011;48480;50.252;18.848;2023-03-11T01:05:34;5.70;;;2.90;;
62435;SDS011;48480;50.252;18.848;2023-03-11T01:08:00;3.10;;;1.40;;
62435;SDS011;48480;50.252;18.848;2023-03-11T01:10:27;4.20;;;1.80;;
62435;SDS011;48480;50.252;18.848;2023-03-11T01:12:53;2.20;;;1.30;;
62435;SDS011;48480;50.252;18.848;2023-03-11T01:15:21;3.70;;;1.40;;
62435;SDS011;48480;50.252;18.848;2023-03-11T01:17:49;2.00;;;1.20;;
62435;SDS011;48480;50.252;18.848;2023-03-11T01:20:15;2.30;;;1.40;;
62435;SDS011;48480;50.252;18.848;2023-03-11T01:22:41;1.70;;;1.20;;
62435;SDS011;48480;50.252;18.848;2023-03-11T01:25:08;1.70;;;1.00;;
62435;SDS011;48480;50.252;18.848;2023-03-11T01:27:36;2.00;;;0.80;;
62435;SDS011;48480;50.252;18.848;2023-03-11T01:30:02;1.90;;;1.00;;
62435;SDS011;48480;50.252;18.848;2023-03-11T01:32:28;2.10;;;1.00;;
62435;SDS011;48480;50.252;18.848;2023-03-11T01:34:53;2.80;;;1.50;;
62435;SDS011;48480;50.252;18.848;2023-03-11T01:37:19;1.30;;;0.80;;
62435;SDS011;48480;50.252;18.848;2023-03-11T01:39:44;3.00;;;1.30;;
62435;SDS011;48480;50.252;18.848;2023-03-11T01:42:09;3.80;;;1.70;;
62435;SDS011;48480;50.252;18.848;2023-03-11T01:44:35;3.40;;;1.80;;
62435;SDS011;48480;50.252;18.848;2023-03-11T01:49:26;2.00;;;1.10;;
62435;SDS011;48480;50.252;18.848;2023-03-11T01:52:01;3.20;;;1.50;;
62435;SDS011;48480;50.252;18.848;2023-03-11T01:54:38;2.60;;;1.10;;
62435;SDS011;48480;50.252;18.848;2023-03-11T01:57:06;2.60;;;1.40;;
62435;SDS011;48480;50.252;18.848;2023-03-11T01:59:36;3.10;;;1.30;;
62435;SDS011;48480;50.252;18.848;2023-03-11T02:02:09;4.60;;;2.00;;
62435;SDS011;48480;50.252;18.848;2023-03-11T02:04:41;2.60;;;1.60;;
62435;SDS011;48480;50.252;18.848;2023-03-11T02:07:07;4.00;;;1.90;;
62435;SDS011;48480;50.252;18.848;2023-03-11T02:09:34;2.50;;;1.70;;
62435;SDS011;48480;50.252;18.848;2023-03-11T02:12:00;4.40;;;1.90;;
62435;SDS011;48480;50.252;18.848;2023-03-11T02:14:27;3.00;;;1.90;;
62435;SDS011;48480;50.252;18.848;2023-03-11T02:16:54;3.20;;;1.80;;
62435;SDS011;48480;50.252;18.848;2023-03-11T02:21:55;4.00;;;2.20;;
62435;SDS011;48480;50.252;18.848;2023-03-11T02:24:42;4.80;;;2.10;;
62435;SDS011;48480;50.252;18.848;2023-03-11T02:27:14;3.40;;;1.90;;
62435;SDS011;48480;50.252;18.848;2023-03-11T02:29:44;4.80;;;2.40;;
62435;SDS011;48480;50.252;18.848;2023-03-11T02:32:14;3.10;;;2.00;;
62435;SDS011;48480;50.252;18.848;2023-03-11T02:34:40;5.10;;;2.30;;
62435;SDS011;48480;50.252;18.848;2023-03-11T02:37:07;4.30;;;2.10;;
62435;SDS011;48480;50.252;18.848;2023-03-11T02:39:35;2.50;;;1.80;;
62435;SDS011;48480;50.252;18.848;2023-03-11T02:42:06;3.70;;;1.80;;
62435;SDS011;48480;50.252;18.848;2023-03-11T02:44:38;3.40;;;1.80;;
62435;SDS011;48480;50.252;18.848;2023-03-11T02:47:06;4.40;;;1.90;;
62435;SDS011;48480;50.252;18.848;2023-03-11T02:49:32;3.30;;;1.50;;
62435;SDS011;48480;50.252;18.848;2023-03-11T02:51:58;2.60;;;1.60;;
62435;SDS011;48480;50.252;18.848;2023-03-11T02:54:23;2.90;;;1.50;;
62435;SDS011;48480;50.252;18.848;2023-03-11T02:56:48;2.80;;;1.40;;
62435;SDS011;48480;50.252;18.848;2023-03-11T02:59:14;3.40;;;1.70;;
62435;SDS011;48480;50.252;18.848;2023-03-11T03:01:39;2.90;;;1.40;;
62435;SDS011;48480;50.252;18.848;2023-03-11T03:04:05;4.30;;;1.70;;
62435;SDS011;48480;50.252;18.848;2023-03-11T03:06:30;2.20;;;1.30;;
62435;SDS011;48480;50.252;18.848;2023-03-11T03:08:56;1.80;;;1.20;;
62435;SDS011;48480;50.252;18.848;2023-03-11T03:11:21;1.40;;;1.00;;
62435;SDS011;48480;50.252;18.848;2023-03-11T03:13:47;3.00;;;1.30;;
62435;SDS011;48480;50.252;18.848;2023-03-11T03:16:12;3.10;;;1.60;;
62435;SDS011;48480;50.252;18.848;2023-03-11T03:18:38;1.00;;;0.80;;
62435;SDS011;48480;50.252;18.848;2023-03-11T03:21:03;3.60;;;1.00;;
62435;SDS011;48480;50.252;18.848;2023-03-11T03:23:29;3.60;;;1.40;;
62435;SDS011;48480;50.252;18.848;2023-03-11T03:25:59;1.60;;;1.20;;
62435;SDS011;48480;50.252;18.848;2023-03-11T03:28:24;1.60;;;1.20;;
62435;SDS011;48480;50.252;18.848;2023-03-11T03:30:50;2.10;;;1.20;;
62435;SDS011;48480;50.252;18.848;2023-03-11T03:33:15;2.20;;;1.10;;
62435;SDS011;48480;50.252;18.848;2023-03-11T03:35:41;1.10;;;0.80;;
62435;SDS011;48480;50.252;18.848;2023-03-11T03:38:09;1.60;;;1.20;;
62435;SDS011;48480;50.252;18.848;2023-03-11T03:40:34;2.50;;;1.10;;
62435;SDS011;48480;50.252;18.848;2023-03-11T03:42:59;2.10;;;1.20;;
62435;SDS011;48480;50.252;18.848;2023-03-11T03:45:25;2.20;;;1.20;;
62435;SDS011;48480;50.252;18.848;2023-03-11T03:48:09;1.70;;;1.10;;
62435;SDS011;48480;50.252;18.848;2023-03-11T03:50:34;2.80;;;1.00;;
62435;SDS011;48480;50.252;18.848;2023-03-11T03:53:00;1.20;;;0.90;;
62435;SDS011;48480;50.252;18.848;2023-03-11T03:55:25;2.00;;;1.10;;
62435;SDS011;48480;50.252;18.848;2023-03-11T03:57:51;2.30;;;1.40;;
62435;SDS011;48480;50.252;18.848;2023-03-11T04:00:16;2.80;;;1.40;;
62435;SDS011;48480;50.252;18.848;2023-03-11T04:02:42;4.00;;;1.40;;
62435;SDS011;48480;50.252;18.848;2023-03-11T04:05:08;2.70;;;1.30;;
62435;SDS011;48480;50.252;18.848;2023-03-11T04:07:34;2.80;;;1.40;;
62435;SDS011;48480;50.252;18.848;2023-03-11T04:10:00;1.40;;;0.90;;
62435;SDS011;48480;50.252;18.848;2023-03-11T04:12:25;2.00;;;1.20;;
62435;SDS011;48480;50.252;18.848;2023-03-11T04:14:51;2.80;;;1.40;;
62435;SDS011;48480;50.252;18.848;2023-03-11T04:17:17;1.60;;;1.10;;
62435;SDS011;48480;50.252;18.848;2023-03-11T04:19:42;3.00;;;1.10;;
62435;SDS011;48480;50.252;18.848;2023-03-11T04:22:08;2.20;;;1.00;;
62435;SDS011;48480;50.252;18.848;2023-03-11T04:24:33;2.00;;;1.00;;
62435;SDS011;48480;50.252;18.848;2023-03-11T04:26:59;1.90;;;1.10;;
62435;SDS011;48480;50.252;18.848;2023-03-11T04:29:25;2.20;;;1.20;;
62435;SDS011;48480;50.252;18.848;2023-03-11T04:31:50;2.20;;;1.10;;
62435;SDS011;48480;50.252;18.848;2023-03-11T04:34:16;2.10;;;0.90;;
62435;SDS011;48480;50.252;18.848;2023-03-11T04:36:41;1.80;;;0.90;;
62435;SDS011;48480;50.252;18.848;2023-03-11T04:39:06;1.80;;;1.10;;
62435;SDS011;48480;50.252;18.848;2023-03-11T04:41:32;1.10;;;0.90;;
62435;SDS011;48480;50.252;18.848;2023-03-11T04:43:57;1.90;;;1.40;;
62435;SDS011;48480;50.252;18.848;2023-03-11T04:46:23;1.90;;;1.10;;
62435;SDS011;48480;50.252;18.848;2023-03-11T04:48:48;1.90;;;1.20;;
62435;SDS011;48480;50.252;18.848;2023-03-11T04:51:14;1.60;;;0.90;;
62435;SDS011;48480;50.252;18.848;2023-03-11T04:53:39;2.30;;;1.10;;
62435;SDS011;48480;50.252;18.848;2023-03-11T04:56:04;1.90;;;1.10;;
62435;SDS011;48480;50.252;18.848;2023-03-11T04:58:30;3.50;;;1.50;;
62435;SDS011;48480;50.252;18.848;2023-03-11T05:00:56;1.20;;;0.90;;
62435;SDS011;48480;50.252;18.848;2023-03-11T05:03:21;1.30;;;0.90;;
62435;SDS011;48480;50.252;18.848;2023-03-11T05:05:47;1.50;;;1.00;;
62435;SDS011;48480;50.252;18.848;2023-03-11T05:08:12;2.20;;;1.30;;
62435;SDS011;48480;50.252;18.848;2023-03-11T05:10:38;2.10;;;1.60;;
62435;SDS011;48480;50.252;18.848;2023-03-11T05:13:06;1.90;;;1.40;;
62435;SDS011;48480;50.252;18.848;2023-03-11T05:15:31;2.40;;;1.90;;
62435;SDS011;48480;50.252;18.848;2023-03-11T05:17:56;2.80;;;2.10;;
62435;SDS011;48480;50.252;18.848;2023-03-11T05:20:22;1.90;;;1.20;;
62435;SDS011;48480;50.252;18.848;2023-03-11T05:22:47;1.80;;;1.00;;
62435;SDS011;48480;50.252;18.848;2023-03-11T05:25:13;3.60;;;1.70;;
62435;SDS011;48480;50.252;18.848;2023-03-11T05:27:39;1.60;;;1.10;;
62435;SDS011;48480;50.252;18.848;2023-03-11T05:30:04;2.80;;;1.70;;
62435;SDS011;48480;50.252;18.848;2023-03-11T05:32:30;3.30;;;1.90;;
62435;SDS011;48480;50.252;18.848;2023-03-11T05:34:56;2.60;;;1.70;;
62435;SDS011;48480;50.252;18.848;2023-03-11T05:37:21;2.20;;;1.90;;
62435;SDS011;48480;50.252;18.848;2023-03-11T05:39:47;2.60;;;1.50;;
62435;SDS011;48480;50.252;18.848;2023-03-11T05:42:12;2.70;;;2.00;;
62435;SDS011;48480;50.252;18.848;2023-03-11T05:44:37;2.10;;;1.40;;
62435;SDS011;48480;50.252;18.848;2023-03-11T05:47:03;3.20;;;1.40;;
62435;SDS011;48480;50.252;18.848;2023-03-11T05:49:29;2.70;;;1.80;;
62435;SDS011;48480;50.252;18.848;2023-03-11T05:51:54;2.30;;;1.10;;
62435;SDS011;48480;50.252;18.848;2023-03-11T05:54:19;2.50;;;1.30;;
62435;SDS011;48480;50.252;18.848;2023-03-11T05:56:45;1.90;;;1.30;;
62435;SDS011;48480;50.252;18.848;2023-03-11T05:59:11;3.60;;;1.80;;
62435;SDS011;48480;50.252;18.848;2023-03-11T06:01:39;1.40;;;1.20;;
62435;SDS011;48480;50.252;18.848;2023-03-11T06:04:05;1.60;;;1.30;;
62435;SDS011;48480;50.252;18.848;2023-03-11T06:06:30;2.20;;;1.40;;
62435;SDS011;48480;50.252;18.848;2023-03-11T06:08:56;2.20;;;1.20;;
62435;SDS011;48480;50.252;18.848;2023-03-11T06:11:22;1.80;;;1.00;;
62435;SDS011;48480;50.252;18.848;2023-03-11T06:13:54;1.30;;;1.00;;
62435;SDS011;48480;50.252;18.848;2023-03-11T06:16:21;2.00;;;1.20;;
62435;SDS011;48480;50.252;18.848;2023-03-11T06:18:48;3.00;;;1.90;;
62435;SDS011;48480;50.252;18.848;2023-03-11T06:21:17;3.20;;;1.80;;
62435;SDS011;48480;50.252;18.848;2023-03-11T06:23:45;2.30;;;1.30;;
62435;SDS011;48480;50.252;18.848;2023-03-11T06:26:14;2.40;;;1.70;;
62435;SDS011;48480;50.252;18.848;2023-03-11T06:28:42;1.10;;;1.00;;
62435;SDS011;48480;50.252;18.848;2023-03-11T06:31:10;2.10;;;1.60;;
62435;SDS011;48480;50.252;18.848;2023-03-11T06:33:38;2.70;;;1.70;;
62435;SDS011;48480;50.252;18.848;2023-03-11T06:36:04;3.40;;;2.30;;
62435;SDS011;48480;50.252;18.848;2023-03-11T06:38:31;3.50;;;2.70;;
62435;SDS011;48480;50.252;18.848;2023-03-11T06:41:00;4.30;;;2.60;;
62435;SDS011;48480;50.252;18.848;2023-03-11T06:43:28;2.60;;;1.90;;
62435;SDS011;48480;50.252;18.848;2023-03-11T06:45:58;2.90;;;2.10;;
62435;SDS011;48480;50.252;18.848;2023-03-11T06:48:25;2.80;;;2.20;;
62435;SDS011;48480;50.252;18.848;2023-03-11T06:50:55;4.30;;;2.60;;
62435;SDS011;48480;50.252;18.848;2023-03-11T06:53:23;4.60;;;2.50;;
62435;SDS011;48480;50.252;18.848;2023-03-11T06:58:34;9.30;;;5.60;;
62435;SDS011;48480;50.252;18.848;2023-03-11T07:01:11;4.40;;;2.90;;
62435;SDS011;48480;50.252;18.848;2023-03-11T07:03:38;3.20;;;2.50;;
62435;SDS011;48480;50.252;18.848;2023-03-11T07:06:04;6.50;;;3.30;;
62435;SDS011;48480;50.252;18.848;2023-03-11T07:08:36;4.10;;;2.80;;
62435;SDS011;48480;50.252;18.848;2023-03-11T07:11:08;2.90;;;2.00;;
62435;SDS011;48480;50.252;18.848;2023-03-11T07:13:38;3.30;;;2.50;;
62435;SDS011;48480;50.252;18.848;2023-03-11T07:16:10;4.40;;;2.70;;
62435;SDS011;48480;50.252;18.848;2023-03-11T07:18:42;3.60;;;2.50;;
62435;SDS011;48480;50.252;18.848;2023-03-11T07:21:20;3.40;;;2.10;;
62435;SDS011;48480;50.252;18.848;2023-03-11T07:23:47;3.10;;;1.90;;
62435;SDS011;48480;50.252;18.848;2023-03-11T07:26:16;3.40;;;2.00;;
62435;SDS011;48480;50.252;18.848;2023-03-11T07:28:42;3.00;;;2.30;;
62435;SDS011;48480;50.252;18.848;2023-03-11T07:31:14;3.40;;;2.30;;
62435;SDS011;48480;50.252;18.848;2023-03-11T07:33:42;2.70;;;1.80;;
62435;SDS011;48480;50.252;18.848;2023-03-11T07:36:09;4.10;;;3.00;;
62435;SDS011;48480;50.252;18.848;2023-03-11T07:38:36;3.20;;;2.70;;
62435;SDS011;48480;50.252;18.848;2023-03-11T07:41:04;2.80;;;1.80;;
62435;SDS011;48480;50.252;18.848;2023-03-11T07:43:31;6.50;;;2.60;;
62435;SDS011;48480;50.252;18.848;2023-03-11T07:48:32;5.30;;;3.00;;
62435;SDS011;48480;50.252;18.848;2023-03-11T07:51:00;4.30;;;2.60;;
62435;SDS011;48480;50.252;18.848;2023-03-11T07:53:31;4.70;;;2.60;;
62435;SDS011;48480;50.252;18.848;2023-03-11T07:55:59;4.50;;;2.80;;
62435;SDS011;48480;50.252;18.848;2023-03-11T07:58:25;4.50;;;3.10;;
62435;SDS011;48480;50.252;18.848;2023-03-11T08:00:52;6.80;;;3.90;;
62435;SDS011;48480;50.252;18.848;2023-03-11T08:03:19;5.60;;;3.40;;
62435;SDS011;48480;50.252;18.848;2023-03-11T08:05:46;6.60;;;3.60;;
62435;SDS011;48480;50.252;18.848;2023-03-11T08:08:11;4.80;;;3.30;;
62435;SDS011;48480;50.252;18.848;2023-03-11T08:10:38;8.20;;;3.20;;
62435;SDS011;48480;50.252;18.848;2023-03-11T08:13:03;5.50;;;3.70;;
62435;SDS011;48480;50.252;18.848;2023-03-11T08:15:30;6.00;;;3.60;;
62435;SDS011;48480;50.252;18.848;2023-03-11T08:17:55;5.10;;;3.20;;
62435;SDS011;48480;50.252;18.848;2023-03-11T08:20:20;4.70;;;3.10;;
62435;SDS011;48480;50.252;18.848;2023-03-11T08:22:46;6.50;;;3.90;;
62435;SDS011;48480;50.252;18.848;2023-03-11T08:25:11;13.30;;;6.00;;
62435;SDS011;48480;50.252;18.848;2023-03-11T08:27:37;6.40;;;4.20;;
62435;SDS011;48480;50.252;18.848;2023-03-11T08:30:03;4.90;;;3.10;;
62435;SDS011;48480;50.252;18.848;2023-03-11T08:32:29;5.50;;;3.20;;
62435;SDS011;48480;50.252;18.848;2023-03-11T08:34:56;4.60;;;3.40;;
62435;SDS011;48480;50.252;18.848;2023-03-11T08:37:22;5.10;;;3.70;;
62435;SDS011;48480;50.252;18.848;2023-03-11T08:39:48;4.00;;;3.10;;
62435;SDS011;48480;50.252;18.848;2023-03-11T08:42:14;6.10;;;3.80;;
62435;SDS011;48480;50.252;18.848;2023-03-11T08:44:40;5.80;;;4.20;;
62435;SDS011;48480;50.252;18.848;2023-03-11T08:47:05;7.80;;;4.10;;
62435;SDS011;48480;50.252;18.848;2023-03-11T08:49:31;5.90;;;3.90;;
62435;SDS011;48480;50.252;18.848;2023-03-11T08:51:57;3.50;;;2.60;;
62435;SDS011;48480;50.252;18.848;2023-03-11T08:54:25;4.70;;;3.00;;
62435;SDS011;48480;50.252;18.848;2023-03-11T08:56:54;2.20;;;2.00;;
62435;SDS011;48480;50.252;18.848;2023-03-11T08:59:19;5.40;;;3.40;;
62435;SDS011;48480;50.252;18.848;2023-03-11T09:01:46;4.20;;;3.10;;
62435;SDS011;48480;50.252;18.848;2023-03-11T09:04:12;4.00;;;3.10;;
62435;SDS011;48480;50.252;18.848;2023-03-11T09:06:44;3.80;;;3.00;;
62435;SDS011;48480;50.252;18.848;2023-03-11T09:09:13;4.50;;;3.90;;
62435;SDS011;48480;50.252;18.848;2023-03-11T09:11:41;6.50;;;4.90;;
62435;SDS011;48480;50.252;18.848;2023-03-11T09:14:07;4.80;;;3.40;;
62435;SDS011;48480;50.252;18.848;2023-03-11T09:16:32;4.70;;;3.80;;
62435;SDS011;48480;50.252;18.848;2023-03-11T09:18:58;4.40;;;3.60;;
62435;SDS011;48480;50.252;18.848;2023-03-11T09:21:31;4.30;;;2.80;;
62435;SDS011;48480;50.252;18.848;2023-03-11T09:24:00;3.50;;;3.10;;
62435;SDS011;48480;50.252;18.848;2023-03-11T09:26:35;4.30;;;3.40;;
62435;SDS011;48480;50.252;18.848;2023-03-11T09:34:40;5.20;;;3.60;;
62435;SDS011;48480;50.252;18.848;2023-03-11T09:37:09;4.70;;;3.60;;
62435;SDS011;48480;50.252;18.848;2023-03-11T09:39:35;5.00;;;3.20;;
62435;SDS011;48480;50.252;18.848;2023-03-11T09:42:01;4.90;;;3.40;;
62435;SDS011;48480;50.252;18.848;2023-03-11T09:50:07;7.30;;;4.10;;
62435;SDS011;48480;50.252;18.848;2023-03-11T09:55:29;5.00;;;3.70;;
62435;SDS011;48480;50.252;18.848;2023-03-11T09:58:01;4.00;;;3.50;;
62435;SDS011;48480;50.252;18.848;2023-03-11T10:00:33;4.70;;;3.00;;
62435;SDS011;48480;50.252;18.848;2023-03-11T10:03:02;5.00;;;2.70;;
62435;SDS011;48480;50.252;18.848;2023-03-11T10:05:36;6.00;;;3.70;;
62435;SDS011;48480;50.252;18.848;2023-03-11T10:08:04;3.70;;;3.10;;
62435;SDS011;48480;50.252;18.848;2023-03-11T10:10:40;3.50;;;2.90;;
62435;SDS011;48480;50.252;18.848;2023-03-11T10:16:19;5.40;;;3.60;;
62435;SDS011;48480;50.252;18.848;2023-03-11T10:24:41;4.80;;;3.20;;
62435;SDS011;48480;50.252;18.848;2023-03-11T10:33:20;5.70;;;3.70;;
62435;SDS011;48480;50.252;18.848;2023-03-11T10:36:20;2.70;;;2.10;;
62435;SDS011;48480;50.252;18.848;2023-03-11T10:38:49;4.90;;;3.10;;
62435;SDS011;48480;50.252;18.848;2023-03-11T10:41:28;4.80;;;2.80;;
62435;SDS011;48480;50.252;18.848;2023-03-11T10:44:01;6.50;;;3.50;;
62435;SDS011;48480;50.252;18.848;2023-03-11T10:46:30;7.10;;;3.90;;
62435;SDS011;48480;50.252;18.848;2023-03-11T10:48:55;4.80;;;3.10;;
62435;SDS011;48480;50.252;18.848;2023-03-11T10:51:22;4.90;;;3.50;;
62435;SDS011;48480;50.252;18.848;2023-03-11T10:54:01;5.40;;;3.40;;
62435;SDS011;48480;50.252;18.848;2023-03-11T10:56:29;6.00;;;4.00;;
62435;SDS011;48480;50.252;18.848;2023-03-11T10:59:00;3.00;;;2.00;;
62435;SDS011;48480;50.252;18.848;2023-03-11T11:01:26;6.00;;;3.20;;
62435;SDS011;48480;50.252;18.848;2023-03-11T11:03:59;3.50;;;2.10;;
62435;SDS011;48480;50.252;18.848;2023-03-11T11:06:27;3.10;;;2.40;;
62435;SDS011;48480;50.252;18.848;2023-03-11T11:12:03;5.10;;;3.20;;
62435;SDS011;48480;50.252;18.848;2023-03-11T11:17:27;5.40;;;3.10;;
62435;SDS011;48480;50.252;18.848;2023-03-11T11:19:57;5.60;;;2.80;;
62435;SDS011;48480;50.252;18.848;2023-03-11T11:22:33;5.10;;;3.60;;
62435;SDS011;48480;50.252;18.848;2023-03-11T11:24:59;5.30;;;3.60;;
62435;SDS011;48480;50.252;18.848;2023-03-11T11:27:27;5.40;;;3.60;;
62435;SDS011;48480;50.252;18.848;2023-03-11T11:32:40;5.20;;;3.60;;
62435;SDS011;48480;50.252;18.848;2023-03-11T11:37:45;7.20;;;3.60;;
62435;SDS011;48480;50.252;18.848;2023-03-11T11:45:30;5.20;;;3.20;;
62435;SDS011;48480;50.252;18.848;2023-03-11T11:48:03;6.60;;;3.70;;
62435;SDS011;48480;50.252;18.848;2023-03-11T11:50:51;10.70;;;5.30;;
62435;SDS011;48480;50.252;18.848;2023-03-11T11:53:30;19.50;;;9.10;;
62435;SDS011;48480;50.252;18.848;2023-03-11T11:56:02;8.30;;;5.90;;
62435;SDS011;48480;50.252;18.848;2023-03-11T11:58:28;6.90;;;4.40;;
62435;SDS011;48480;50.252;18.848;2023-03-11T12:01:14;9.10;;;6.00;;
62435;SDS011;48480;50.252;18.848;2023-03-11T12:06:43;4.80;;;3.30;;
62435;SDS011;48480;50.252;18.848;2023-03-11T12:09:22;4.00;;;2.10;;
62435;SDS011;48480;50.252;18.848;2023-03-11T12:12:25;4.80;;;3.30;;
62435;SDS011;48480;50.252;18.848;2023-03-11T12:17:44;4.10;;;2.80;;
62435;SDS011;48480;50.252;18.848;2023-03-11T12:20:14;4.60;;;2.80;;
62435;SDS011;48480;50.252;18.848;2023-03-11T12:22:58;5.20;;;2.90;;
62435;SDS011;48480;50.252;18.848;2023-03-11T12:31:21;5.70;;;3.00;;
62435;SDS011;48480;50.252;18.848;2023-03-11T12:33:58;5.30;;;3.20;;
62435;SDS011;48480;50.252;18.848;2023-03-11T12:36:33;4.60;;;3.10;;
62435;SDS011;48480;50.252;18.848;2023-03-11T12:39:02;4.90;;;3.20;;
62435;SDS011;48480;50.252;18.848;2023-03-11T12:41:37;5.90;;;3.30;;
62435;SDS011;48480;50.252;18.848;2023-03-11T12:49:25;5.90;;;3.80;;
62435;SDS011;48480;50.252;18.848;2023-03-11T12:54:37;4.20;;;2.70;;
62435;SDS011;48480;50.252;18.848;2023-03-11T13:10:57;9.20;;;5.70;;
62435;SDS011;48480;50.252;18.848;2023-03-11T13:18:38;6.00;;;4.50;;
62435;SDS011;48480;50.252;18.848;2023-03-11T13:23:52;4.80;;;3.50;;
62435;SDS011;48480;50.252;18.848;2023-03-11T13:26:41;4.30;;;2.70;;
62435;SDS011;48480;50.252;18.848;2023-03-11T13:29:28;5.30;;;3.60;;
62435;SDS011;48480;50.252;18.848;2023-03-11T13:35:11;5.60;;;3.70;;
62435;SDS011;48480;50.252;18.848;2023-03-11T13:41:02;7.10;;;4.50;;
62435;SDS011;48480;50.252;18.848;2023-03-11T13:43:47;7.20;;;4.10;;
62435;SDS011;48480;50.252;18.848;2023-03-11T13:48:48;6.60;;;4.00;;
62435;SDS011;48480;50.252;18.848;2023-03-11T13:51:28;7.10;;;4.10;;
62435;SDS011;48480;50.252;18.848;2023-03-11T13:54:07;5.60;;;3.40;;
62435;SDS011;48480;50.252;18.848;2023-03-11T13:56:51;7.00;;;4.10;;
62435;SDS011;48480;50.252;18.848;2023-03-11T13:59:24;7.10;;;3.70;;
62435;SDS011;48480;50.252;18.848;2023-03-11T14:04:38;7.60;;;3.60;;
62435;SDS011;48480;50.252;18.848;2023-03-11T14:07:12;7.80;;;4.20;;
62435;SDS011;48480;50.252;18.848;2023-03-11T14:09:43;6.70;;;4.30;;
62435;SDS011;48480;50.252;18.848;2023-03-11T14:12:08;5.10;;;3.20;;
62435;SDS011;48480;50.252;18.848;2023-03-11T14:14:40;4.80;;;3.20;;
62435;SDS011;48480;50.252;18.848;2023-03-11T14:17:18;6.20;;;3.90;;
62435;SDS011;48480;50.252;18.848;2023-03-11T14:22:49;6.00;;;3.70;;
62435;SDS011;48480;50.252;18.848;2023-03-11T14:25:18;4.80;;;3.20;;
62435;SDS011;48480;50.252;18.848;2023-03-11T14:27:59;5.40;;;3.30;;
62435;SDS011;48480;50.252;18.848;2023-03-11T14:30:27;7.20;;;3.40;;
62435;SDS011;48480;50.252;18.848;2023-03-11T14:33:04;7.70;;;4.00;;
62435;SDS011;48480;50.252;18.848;2023-03-11T14:35:52;5.00;;;3.30;;
62435;SDS011;48480;50.252;18.848;2023-03-11T14:38:25;5.60;;;3.80;;
62435;SDS011;48480;50.252;18.848;2023-03-11T14:43:22;5.60;;;3.50;;
62435;SDS011;48480;50.252;18.848;2023-03-11T14:45:49;5.90;;;3.30;;
62435;SDS011;48480;50.252;18.848;2023-03-11T14:48:30;7.20;;;3.30;;
62435;SDS011;48480;50.252;18.848;2023-03-11T14:51:02;7.70;;;4.40;;
62435;SDS011;48480;50.252;18.848;2023-03-11T14:53:37;8.30;;;4.80;;
62435;SDS011;48480;50.252;18.848;2023-03-11T14:56:13;6.30;;;3.70;;
62435;SDS011;48480;50.252;18.848;2023-03-11T14:58:45;7.50;;;4.70;;
62435;SDS011;48480;50.252;18.848;2023-03-11T15:01:30;6.10;;;4.00;;
62435;SDS011;48480;50.252;18.848;2023-03-11T15:06:38;7.60;;;4.90;;
62435;SDS011;48480;50.252;18.848;2023-03-11T15:09:09;9.50;;;4.60;;
62435;SDS011;48480;50.252;18.848;2023-03-11T15:16:52;7.80;;;5.20;;
62435;SDS011;48480;50.252;18.848;2023-03-11T15:21:57;11.20;;;6.60;;
62435;SDS011;48480;50.252;18.848;2023-03-11T15:24:28;12.20;;;6.50;;
62435;SDS011;48480;50.252;18.848;2023-03-11T15:27:00;8.30;;;5.00;;
62435;SDS011;48480;50.252;18.848;2023-03-11T15:29:29;8.10;;;5.20;;
62435;SDS011;48480;50.252;18.848;2023-03-11T15:31:55;8.80;;;4.80;;
62435;SDS011;48480;50.252;18.848;2023-03-11T15:34:30;6.70;;;3.70;;
62435;SDS011;48480;50.252;18.848;2023-03-11T15:41:57;7.30;;;4.80;;
62435;SDS011;48480;50.252;18.848;2023-03-11T15:47:24;7.10;;;4.50;;
62435;SDS011;48480;50.252;18.848;2023-03-11T15:49:49;7.90;;;4.80;;
62435;SDS011;48480;50.252;18.848;2023-03-11T15:52:15;6.30;;;3.70;;
62435;SDS011;48480;50.252;18.848;2023-03-11T15:54:44;7.30;;;4.50;;
62435;SDS011;48480;50.252;18.848;2023-03-11T15:57:19;9.70;;;5.60;;
62435;SDS011;48480;50.252;18.848;2023-03-11T15:59:50;9.00;;;5.60;;
62435;SDS011;48480;50.252;18.848;2023-03-11T16:02:22;7.70;;;4.70;;
62435;SDS011;48480;50.252;18.848;2023-03-11T16:04:53;7.70;;;4.40;;
62435;SDS011;48480;50.252;18.848;2023-03-11T16:07:19;6.20;;;3.80;;
62435;SDS011;48480;50.252;18.848;2023-03-11T16:09:45;5.80;;;4.10;;
62435;SDS011;48480;50.252;18.848;2023-03-11T16:12:15;5.60;;;4.20;;
62435;SDS011;48480;50.252;18.848;2023-03-11T16:14:42;5.90;;;2.30;;
62435;SDS011;48480;50.252;18.848;2023-03-11T16:17:08;6.30;;;3.70;;
62435;SDS011;48480;50.252;18.848;2023-03-11T16:19:34;4.80;;;2.70;;
62435;SDS011;48480;50.252;18.848;2023-03-11T16:21:59;7.60;;;4.20;;
62435;SDS011;48480;50.252;18.848;2023-03-11T16:24:26;9.50;;;4.90;;
62435;SDS011;48480;50.252;18.848;2023-03-11T16:26:52;9.60;;;5.00;;
62435;SDS011;48480;50.252;18.848;2023-03-11T16:29:18;10.00;;;6.20;;
62435;SDS011;48480;50.252;18.848;2023-03-11T16:31:44;7.90;;;4.50;;
62435;SDS011;48480;50.252;18.848;2023-03-11T16:34:11;9.40;;;5.00;;
62435;SDS011;48480;50.252;18.848;2023-03-11T16:36:36;8.80;;;5.20;;
62435;SDS011;48480;50.252;18.848;2023-03-11T16:39:02;9.90;;;5.60;;
62435;SDS011;48480;50.252;18.848;2023-03-11T16:41:27;7.70;;;4.50;;
62435;SDS011;48480;50.252;18.848;2023-03-11T16:43:53;10.70;;;5.00;;
62435;SDS011;48480;50.252;18.848;2023-03-11T16:46:18;9.70;;;5.00;;
62435;SDS011;48480;50.252;18.848;2023-03-11T16:48:44;9.80;;;5.60;;
62435;SDS011;48480;50.252;18.848;2023-03-11T16:51:09;10.10;;;6.00;;
62435;SDS011;48480;50.252;18.848;2023-03-11T16:53:35;8.60;;;5.60;;
62435;SDS011;48480;50.252;18.848;2023-03-11T16:56:00;9.10;;;5.90;;